Time;durP1;ratioP1;P1;durP2;ratioP2;P2;SDS_P1;SDS_P2;PMS_P1;PMS_P2;Temp;Humidity;BMP_temperature;BMP_pressure;BME280_temperature;BME280_humidity;BME280_pressure;Samples;Min_cycle;Max_cycle;Signal;HPM_P1;HPM_P2
2022/12/19 09:24:47;;;;;;;7.88;4.72;;;5.80;99.90;;;;;;5883491;23;20118;-84
2022/12/19 09:27:12;;;;;;;8.40;4.97;;;6.00;99.90;;;;;;4957007;28;20300;-82
2022/12/19 09:29:38;;;;;;;8.88;4.97;;;5.90;99.90;;;;;;4946236;28;20475;-81
2022/12/19 09:32:04;;;;;;;9.73;5.10;;;6.00;99.90;;;;;;4948735;28;20031;-83
2022/12/19 09:34:29;;;;;;;7.50;5.15;;;6.00;99.90;;;;;;4946449;28;20055;-82
2022/12/19 09:36:55;;;;;;;7.15;4.60;;;6.10;99.90;;;;;;4933671;28;20038;-82
2022/12/19 09:39:21;;;;;;;7.25;4.45;;;6.00;99.90;;;;;;4934029;28;20039;-83
2022/12/19 09:42:12;;;;;;;7.82;4.50;;;6.00;99.90;;;;;;4945736;28;20126;-83
2022/12/19 09:45:11;;;;;;;7.97;5.25;;;6.10;99.90;;;;;;4929908;28;20116;-83
2022/12/19 09:47:42;;;;;;;11.85;5.28;;;6.10;99.90;;;;;;4955554;28;20043;-82
2022/12/19 09:50:40;;;;;;;5.95;3.70;;;6.10;99.90;;;;;;4944152;28;20030;-82
2022/12/19 09:53:14;;;;;;;8.15;4.30;;;6.10;99.90;;;;;;4948849;28;20047;-82
2022/12/19 09:55:41;;;;;;;6.03;4.20;;;6.10;99.90;;;;;;4947242;28;20054;-82
2022/12/19 09:58:22;;;;;;;7.60;4.90;;;6.20;99.90;;;;;;4929817;28;20026;-83
2022/12/19 10:00:53;;;;;;;6.78;4.60;;;6.20;99.90;;;;;;4930201;28;20483;-81
2022/12/19 10:03:26;;;;;;;7.25;4.10;;;6.10;99.90;;;;;;4933487;28;20088;-82
2022/12/19 10:06:02;;;;;;;8.15;4.20;;;6.10;99.90;;;;;;4957938;28;20121;-82
2022/12/19 10:08:46;;;;;;;6.63;4.28;;;6.10;99.90;;;;;;4943258;28;20035;-81
2022/12/19 10:11:15;;;;;;;5.32;3.88;;;6.10;99.90;;;;;;4931664;28;20145;-81
2022/12/19 10:14:17;;;;;;;5.07;2.38;;;6.00;99.90;;;;;;4941454;28;20114;-82
2022/12/19 10:16:43;;;;;;;4.40;2.75;;;6.00;99.90;;;;;;4932076;28;20081;-82
2022/12/19 10:19:19;;;;;;;5.22;2.85;;;6.00;99.90;;;;;;4960069;28;20074;-81
2022/12/19 10:21:48;;;;;;;5.47;3.30;;;6.00;99.90;;;;;;4958944;28;20032;-81
2022/12/19 10:24:35;;;;;;;5.20;2.85;;;6.00;99.90;;;;;;4957778;28;20130;-82
2022/12/19 10:27:16;;;;;;;6.60;3.47;;;6.00;99.90;;;;;;4943023;28;20451;-83
2022/12/19 10:30:02;;;;;;;6.18;3.28;;;6.10;99.90;;;;;;4958587;28;20554;-81
2022/12/19 10:32:56;;;;;;;5.57;3.65;;;6.20;99.90;;;;;;4959052;28;20042;-82
2022/12/19 10:35:28;;;;;;;4.10;2.65;;;6.30;99.90;;;;;;4933198;28;20042;-81
2022/12/19 10:38:07;;;;;;;6.32;3.33;;;6.40;99.90;;;;;;4927345;28;20295;-81
2022/12/19 10:40:44;;;;;;;5.45;3.63;;;6.40;99.90;;;;;;4927203;28;20043;-81
2022/12/19 10:43:25;;;;;;;4.13;2.92;;;6.50;99.90;;;;;;4933111;28;20035;-82
2022/12/19 10:45:56;;;;;;;4.47;2.90;;;6.60;99.90;;;;;;4942307;28;20055;-82
2022/12/19 10:48:23;;;;;;;3.95;2.78;;;6.70;99.90;;;;;;4938657;28;20039;-83
2022/12/19 10:50:49;;;;;;;5.15;2.72;;;6.70;99.90;;;;;;4958876;28;20047;-82
2022/12/19 10:53:24;;;;;;;5.40;1.92;;;6.70;99.90;;;;;;4944319;28;20093;-83
2022/12/19 10:55:52;;;;;;;4.03;2.30;;;6.70;99.90;;;;;;4940976;28;20043;-83
2022/12/19 10:58:19;;;;;;;3.88;1.65;;;6.70;99.90;;;;;;4946999;28;20043;-83
2022/12/19 11:01:08;;;;;;;4.05;2.65;;;6.70;99.90;;;;;;4942445;28;20074;-82
2022/12/19 11:03:34;;;;;;;5.35;2.67;;;6.80;99.90;;;;;;4925704;28;20035;-81
2022/12/19 11:06:02;;;;;;;4.57;2.85;;;6.80;99.90;;;;;;4927318;28;20035;-83
2022/12/19 11:08:31;;;;;;;4.55;2.75;;;6.80;99.90;;;;;;4945009;28;20046;-82
2022/12/19 11:11:11;;;;;;;5.50;3.15;;;6.90;99.90;;;;;;4931223;28;20660;-81
2022/12/19 11:13:37;;;;;;;3.45;1.63;;;6.80;99.90;;;;;;4959018;28;20039;-82
2022/12/19 11:16:05;;;;;;;3.67;2.72;;;6.80;99.90;;;;;;4944248;28;20066;-81
2022/12/19 11:18:40;;;;;;;4.47;2.80;;;6.80;99.90;;;;;;4945181;28;20083;-81
2022/12/19 11:21:29;;;;;;;5.00;2.85;;;6.90;99.90;;;;;;4943154;28;20038;-82
2022/12/19 11:23:58;;;;;;;4.82;3.22;;;6.90;99.90;;;;;;4925443;28;20035;-82
2022/12/19 11:26:39;;;;;;;5.60;3.35;;;6.90;99.90;;;;;;4941462;28;20615;-82
2022/12/19 11:29:18;;;;;;;5.28;3.50;;;6.90;99.90;;;;;;4926836;28;20107;-82
2022/12/19 11:31:46;;;;;;;6.20;3.95;;;7.00;99.90;;;;;;4927030;28;20118;-81
2022/12/19 11:34:22;;;;;;;7.32;3.92;;;7.00;99.90;;;;;;4930205;28;20076;-82
2022/12/19 11:37:06;;;;;;;5.65;3.80;;;7.10;99.90;;;;;;4956752;28;20043;-82
2022/12/19 11:39:50;;;;;;;5.60;3.88;;;7.10;99.90;;;;;;4929328;28;20054;-81
2022/12/19 11:42:38;;;;;;;5.70;3.95;;;7.10;99.90;;;;;;4956979;28;20046;-82
2022/12/19 11:45:19;;;;;;;4.18;2.72;;;7.10;99.90;;;;;;4956783;28;20046;-81
2022/12/19 11:48:26;;;;;;;5.63;2.90;;;7.10;99.90;;;;;;4926863;28;20431;-81
2022/12/19 11:51:03;;;;;;;5.63;3.28;;;7.10;99.90;;;;;;4851369;29;20593;-81
2022/12/19 11:53:49;;;;;;;6.38;3.30;;;7.20;99.90;;;;;;4868737;29;20044;-81
2022/12/19 11:56:22;;;;;;;4.57;2.90;;;7.10;99.90;;;;;;4868097;29;20387;-80
2022/12/19 11:58:52;;;;;;;4.70;3.08;;;7.10;99.90;;;;;;4853526;29;20129;-82
2022/12/19 12:01:46;;;;;;;5.15;2.65;;;7.20;99.90;;;;;;4868917;29;20182;-81
2022/12/19 12:04:30;;;;;;;6.93;3.70;;;7.20;99.90;;;;;;4868882;29;20041;-81
2022/12/19 12:06:56;;;;;;;4.40;3.33;;;7.20;99.90;;;;;;4868519;29;20048;-82
2022/12/19 12:09:37;;;;;;;4.13;2.42;;;7.30;99.90;;;;;;4868707;29;20453;-83
2022/12/19 12:12:18;;;;;;;5.68;3.20;;;7.30;99.90;;;;;;4853214;29;20131;-81
2022/12/19 12:15:13;;;;;;;3.70;2.42;;;7.30;99.90;;;;;;4868535;29;20505;-82
2022/12/19 12:18:02;;;;;;;3.58;2.67;;;7.40;99.90;;;;;;4858310;29;20402;-81
2022/12/19 12:20:37;;;;;;;4.68;3.03;;;7.40;99.90;;;;;;4852632;29;20059;-81
2022/12/19 12:23:12;;;;;;;4.80;2.83;;;7.40;99.90;;;;;;4838186;29;20040;-81
2022/12/19 12:25:49;;;;;;;4.05;2.15;;;7.30;99.90;;;;;;4936675;28;20053;-81
2022/12/19 12:28:50;;;;;;;4.93;2.80;;;7.40;99.90;;;;;;4924865;28;20518;-83
2022/12/19 12:31:54;;;;;;;6.63;3.55;;;7.50;99.90;;;;;;4943812;28;20035;-82
2022/12/19 12:34:57;;;;;;;3.70;2.60;;;7.50;99.90;;;;;;4941013;28;20054;-82
2022/12/19 12:37:58;;;;;;;3.65;2.08;;;7.50;99.90;;;;;;4940710;28;20031;-82
2022/12/19 12:40:47;;;;;;;2.58;1.27;;;7.60;99.90;;;;;;4941498;28;20487;-82
2022/12/19 12:43:26;;;;;;;3.05;2.03;;;7.70;99.90;;;;;;4928256;28;20178;-81
2022/12/19 12:45:52;;;;;;;3.47;2.00;;;7.70;99.90;;;;;;4938913;28;20043;-81
2022/12/19 12:48:31;;;;;;;3.80;2.20;;;7.80;99.90;;;;;;4942572;28;20597;-82
2022/12/19 12:50:59;;;;;;;3.42;2.42;;;7.70;99.90;;;;;;4958059;28;20306;-81
2022/12/19 12:53:30;;;;;;;3.20;2.17;;;7.70;99.90;;;;;;4959667;28;20042;-82
2022/12/19 12:55:59;;;;;;;4.53;2.25;;;7.70;99.90;;;;;;4959542;28;20073;-82
2022/12/19 12:58:50;;;;;;;3.67;2.13;;;7.80;99.90;;;;;;4943219;28;20070;-82
2022/12/19 13:01:28;;;;;;;4.47;2.15;;;7.80;99.90;;;;;;4944562;28;20043;-83
2022/12/19 13:03:56;;;;;;;3.97;1.85;;;7.80;99.90;;;;;;4944053;28;20069;-82
2022/12/19 13:06:31;;;;;;;2.90;1.50;;;7.80;99.90;;;;;;4948701;28;20099;-83
2022/12/19 13:09:18;;;;;;;3.38;1.50;;;7.80;99.90;;;;;;4947358;28;20058;-81
2022/12/19 13:14:50;;;;;;;6.05;1.92;;;7.80;99.90;;;;;;4942811;28;20102;-83
2022/12/19 13:17:43;;;;;;;3.45;2.05;;;7.90;99.90;;;;;;4959839;28;20050;-82
2022/12/19 13:20:09;;;;;;;3.30;1.58;;;7.90;99.90;;;;;;4950255;28;20517;-82
2022/12/19 13:22:34;;;;;;;3.67;2.13;;;7.90;99.90;;;;;;4934919;28;20043;-84
2022/12/19 13:25:00;;;;;;;2.97;1.35;;;7.80;99.90;;;;;;4943187;28;20046;-82
2022/12/19 13:27:40;;;;;;;4.05;2.20;;;7.90;99.90;;;;;;4943934;28;20069;-84
2022/12/19 13:30:06;;;;;;;3.53;2.25;;;8.00;99.90;;;;;;4960644;28;20036;-84
2022/12/19 13:32:52;;;;;;;4.05;2.30;;;8.00;99.90;;;;;;4943485;28;20121;-84
2022/12/19 13:35:17;;;;;;;3.42;1.63;;;8.00;99.90;;;;;;4962108;28;20043;-84
2022/12/19 13:38:22;;;;;;;2.50;1.70;;;8.10;99.90;;;;;;4945610;28;20126;-84
2022/12/19 13:40:55;;;;;;;2.33;1.17;;;8.10;99.90;;;;;;4928920;28;20131;-84
2022/12/19 13:43:47;;;;;;;2.72;1.52;;;8.10;99.90;;;;;;4940931;28;20042;-83
2022/12/19 13:46:41;;;;;;;3.08;1.38;;;8.20;99.90;;;;;;4941264;28;20030;-84
2022/12/19 13:49:17;;;;;;;2.67;1.38;;;8.20;99.90;;;;;;4941985;28;20032;-83
2022/12/19 13:51:55;;;;;;;2.00;0.90;;;8.10;99.90;;;;;;4941738;28;20042;-83
2022/12/19 13:54:27;;;;;;;3.38;1.60;;;8.10;99.90;;;;;;4950382;28;20158;-82
2022/12/19 13:56:54;;;;;;;3.13;1.58;;;8.10;99.90;;;;;;4945473;28;20031;-84
2022/12/19 13:59:23;;;;;;;2.83;1.52;;;8.10;99.90;;;;;;4947586;28;20081;-83
2022/12/19 14:01:52;;;;;;;4.28;2.60;;;8.00;99.90;;;;;;4925736;28;20034;-84
2022/12/19 14:04:30;;;;;;;4.72;3.63;;;7.90;99.90;;;;;;4941301;28;20050;-84
2022/12/19 14:07:20;;;;;;;3.85;2.42;;;7.80;99.90;;;;;;4959934;28;20096;-85
2022/12/19 14:09:49;;;;;;;4.28;3.15;;;7.70;99.90;;;;;;4962041;28;20035;-83
2022/12/19 14:15:20;;;;;;;4.78;3.30;;;7.60;99.90;;;;;;4947329;28;20039;-84
2022/12/19 14:17:49;;;;;;;5.35;3.80;;;7.50;99.90;;;;;;4944034;28;20126;-82
2022/12/19 14:20:24;;;;;;;6.03;3.83;;;7.40;99.90;;;;;;4947618;28;20059;-84
2022/12/19 14:22:58;;;;;;;9.38;5.32;;;7.30;99.90;;;;;;4950588;28;20042;-84
2022/12/19 14:25:54;;;;;;;9.40;5.00;;;7.20;99.90;;;;;;4938616;28;20365;-84
2022/12/19 14:28:38;;;;;;;7.13;4.40;;;7.10;99.90;;;;;;4932650;28;20043;-84
2022/12/19 14:31:09;;;;;;;9.45;4.72;;;7.00;99.90;;;;;;4928099;28;20038;-83
2022/12/19 14:33:42;;;;;;;9.00;5.60;;;6.90;99.90;;;;;;4957266;28;20515;-84
2022/12/19 14:36:07;;;;;;;9.32;5.13;;;6.90;99.90;;;;;;4945882;28;20113;-84
2022/12/19 14:38:35;;;;;;;9.75;6.90;;;6.80;99.90;;;;;;4933239;28;20197;-83
2022/12/19 14:41:02;;;;;;;14.50;8.02;;;6.80;99.90;;;;;;4959780;28;20078;-84
2022/12/19 14:43:39;;;;;;;8.68;6.28;;;6.70;99.90;;;;;;4927259;28;20118;-83
2022/12/19 14:46:20;;;;;;;11.20;7.32;;;6.70;99.90;;;;;;4957733;28;20063;-84
2022/12/19 14:48:57;;;;;;;10.00;5.95;;;6.70;99.90;;;;;;4951412;28;20495;-84
2022/12/19 14:51:40;;;;;;;12.50;7.25;;;6.70;99.90;;;;;;4929867;28;20078;-84
2022/12/19 14:54:10;;;;;;;10.48;5.97;;;6.70;99.90;;;;;;4945354;28;20053;-84
2022/12/19 14:56:47;;;;;;;13.07;8.27;;;6.60;99.90;;;;;;4961477;28;20047;-85
2022/12/19 14:59:34;;;;;;;9.55;6.10;;;6.60;99.90;;;;;;4948905;28;20491;-83
2022/12/19 15:02:06;;;;;;;8.05;5.53;;;6.60;99.90;;;;;;4956823;28;20046;-84
2022/12/19 15:05:06;;;;;;;9.48;7.13;;;6.50;99.90;;;;;;4923542;28;20549;-84
2022/12/19 15:07:33;;;;;;;12.13;6.25;;;6.50;99.90;;;;;;4938873;28;20098;-84
2022/12/19 15:10:09;;;;;;;8.70;5.10;;;6.50;99.90;;;;;;4959654;28;20059;-85
2022/12/19 15:15:36;;;;;;;9.70;5.68;;;6.50;99.90;;;;;;4960381;28;20494;-86
2022/12/19 15:18:15;;;;;;;7.28;3.65;;;6.50;99.90;;;;;;4944088;28;20130;-84
2022/12/19 15:20:40;;;;;;;8.68;5.05;;;6.50;99.90;;;;;;4958007;28;20042;-84
2022/12/19 15:23:07;;;;;;;7.63;4.85;;;6.50;99.90;;;;;;4948170;28;20050;-85
2022/12/19 15:25:32;;;;;;;8.82;5.63;;;6.50;99.90;;;;;;4933586;28;20173;-84
2022/12/19 15:27:58;;;;;;;9.05;5.95;;;6.40;99.90;;;;;;4960819;28;20123;-85
2022/12/19 15:30:24;;;;;;;9.65;5.68;;;6.40;99.90;;;;;;4945082;28;20089;-86
2022/12/19 15:32:49;;;;;;;8.73;5.65;;;6.50;99.90;;;;;;4946357;28;20125;-85
2022/12/19 15:35:17;;;;;;;9.77;4.97;;;6.50;99.90;;;;;;4928613;28;20498;-85
2022/12/19 15:37:44;;;;;;;8.88;5.53;;;6.50;99.90;;;;;;4943854;28;20070;-85
2022/12/19 15:40:15;;;;;;;6.28;3.60;;;6.50;99.90;;;;;;4942213;28;20047;-86
2022/12/19 15:42:44;;;;;;;7.50;4.97;;;6.50;99.90;;;;;;4943270;28;20066;-86
2022/12/19 15:45:18;;;;;;;6.80;4.32;;;6.50;99.90;;;;;;4933718;28;20034;-86
2022/12/19 15:47:46;;;;;;;8.43;5.22;;;6.50;99.90;;;;;;4958941;28;20039;-87
2022/12/19 15:50:28;;;;;;;6.63;4.20;;;6.50;99.90;;;;;;4945482;28;20046;-86
2022/12/19 15:52:57;;;;;;;7.57;4.95;;;6.50;99.90;;;;;;4949528;28;20090;-87
2022/12/19 15:55:26;;;;;;;9.52;5.70;;;6.50;99.90;;;;;;4941447;28;20047;-87
2022/12/19 15:57:59;;;;;;;5.73;4.20;;;6.50;99.90;;;;;;4942221;28;20050;-87
2022/12/19 16:00:28;;;;;;;7.40;4.07;;;6.50;99.90;;;;;;4959179;28;20306;-88
2022/12/19 16:02:55;;;;;;;5.73;3.57;;;6.60;99.90;;;;;;4944313;28;20303;-86
2022/12/19 16:05:22;;;;;;;6.18;3.70;;;6.60;99.90;;;;;;4944288;28;20133;-87
2022/12/19 16:07:47;;;;;;;5.75;3.47;;;6.70;99.90;;;;;;4946070;28;20047;-87
2022/12/19 16:10:14;;;;;;;6.47;4.28;;;6.70;99.90;;;;;;4958010;28;20033;-87
2022/12/19 16:12:54;;;;;;;5.35;3.13;;;6.70;99.90;;;;;;4947807;28;20424;-88
2022/12/19 16:15:31;;;;;;;9.13;5.20;;;6.70;99.90;;;;;;4941655;28;20050;-88
2022/12/19 16:17:59;;;;;;;8.32;4.82;;;6.70;99.90;;;;;;4931514;28;20046;-88
2022/12/19 16:20:36;;;;;;;7.25;4.85;;;6.70;99.90;;;;;;4928453;28;20587;-87
2022/12/19 16:23:02;;;;;;;6.70;3.65;;;6.70;99.90;;;;;;4927990;28;20039;-89
2022/12/19 16:25:44;;;;;;;6.38;4.20;;;6.70;99.90;;;;;;4943704;28;20043;-87
2022/12/19 16:28:29;;;;;;;8.82;5.10;;;6.70;99.90;;;;;;4929153;28;20483;-88
2022/12/19 16:30:56;;;;;;;7.88;4.63;;;6.70;99.90;;;;;;4944787;28;20048;-88
2022/12/19 16:33:26;;;;;;;8.00;4.72;;;6.70;99.90;;;;;;4965121;28;20085;-87
2022/12/19 16:35:52;;;;;;;9.15;4.00;;;6.70;99.90;;;;;;4930087;28;20038;-87
2022/12/19 16:38:18;;;;;;;7.47;3.83;;;6.70;99.90;;;;;;4944284;28;20391;-87
2022/12/19 16:40:44;;;;;;;6.25;4.13;;;6.60;99.90;;;;;;4948489;28;20058;-85
2022/12/19 16:43:21;;;;;;;7.55;4.50;;;6.60;99.90;;;;;;4934206;28;20031;-87
2022/12/19 16:45:47;;;;;;;10.02;5.47;;;6.70;99.90;;;;;;4936332;28;20140;-87
2022/12/19 16:48:21;;;;;;;7.90;4.97;;;6.70;99.90;;;;;;4963126;28;20261;-87
2022/12/19 16:50:47;;;;;;;9.73;5.15;;;6.60;99.90;;;;;;4929175;28;20058;-88
2022/12/19 16:53:12;;;;;;;6.70;3.60;;;6.70;99.90;;;;;;4938754;28;20039;-88
2022/12/19 16:55:38;;;;;;;8.23;5.38;;;6.60;99.90;;;;;;4934784;28;20483;-86
2022/12/19 16:58:04;;;;;;;6.35;3.90;;;6.60;99.90;;;;;;4945645;28;20042;-87
2022/12/19 17:00:35;;;;;;;6.85;4.03;;;6.60;99.90;;;;;;4931461;28;20426;-87
2022/12/19 17:03:05;;;;;;;;;;;6.60;99.90;;;;;;4946659;28;20055;-87
2022/12/19 17:05:31;;;;;;;;;;;6.60;99.90;;;;;;4931528;28;20012;-86
2022/12/19 17:07:57;;;;;;;7.40;4.00;;;6.60;99.90;;;;;;4952969;28;20406;-88
2022/12/19 17:10:31;;;;;;;6.43;3.78;;;6.60;99.90;;;;;;4931441;28;20418;-87
2022/12/19 17:13:00;;;;;;;6.78;3.83;;;6.60;99.90;;;;;;4929501;28;20039;-87
2022/12/19 17:15:29;;;;;;;6.10;4.18;;;6.60;99.90;;;;;;4962539;28;20126;-86
2022/12/19 17:18:01;;;;;;;7.80;3.63;;;6.50;99.90;;;;;;4947918;28;20078;-86
2022/12/19 17:20:33;;;;;;;5.50;3.13;;;6.50;99.90;;;;;;4949631;28;20085;-87
2022/12/19 17:22:58;;;;;;;4.13;2.55;;;6.40;99.90;;;;;;4968529;28;20039;-86
2022/12/19 17:25:26;;;;;;;7.28;4.53;;;6.40;99.90;;;;;;4954097;28;20149;-85
2022/12/19 17:27:54;;;;;;;5.57;3.33;;;6.50;99.90;;;;;;4923624;28;20043;-82
2022/12/19 17:30:20;;;;;;;6.35;3.72;;;6.50;99.90;;;;;;4922032;28;20047;-86
2022/12/19 17:32:53;;;;;;;7.45;4.20;;;6.50;99.90;;;;;;4933905;28;20043;-85
2022/12/19 17:35:22;;;;;;;7.20;4.20;;;6.60;99.90;;;;;;4947831;28;20043;-86
2022/12/19 17:37:53;;;;;;;7.50;4.97;;;6.60;99.90;;;;;;4925396;28;20134;-86
2022/12/19 17:40:28;;;;;;;7.15;4.55;;;6.70;99.90;;;;;;4935975;28;20113;-85
2022/12/19 17:42:54;;;;;;;7.45;4.93;;;6.70;99.90;;;;;;4957700;28;20039;-84
2022/12/19 17:45:22;;;;;;;9.55;4.65;;;6.70;99.90;;;;;;4945338;28;20035;-87
2022/12/19 17:47:48;;;;;;;7.60;4.47;;;6.80;99.90;;;;;;4945161;28;20095;-88
2022/12/19 17:50:26;;;;;;;4.85;3.28;;;6.80;99.90;;;;;;4927275;28;20494;-87
2022/12/19 17:52:52;;;;;;;7.28;3.47;;;6.80;99.90;;;;;;4945904;28;20039;-87
2022/12/19 17:55:24;;;;;;;6.05;3.30;;;6.80;99.90;;;;;;4935342;28;20770;-86
2022/12/19 17:57:51;;;;;;;5.15;2.85;;;6.80;99.90;;;;;;4945572;28;20047;-87
2022/12/19 18:00:19;;;;;;;6.25;3.08;;;6.80;99.90;;;;;;4945016;28;20511;-87
2022/12/19 18:02:47;;;;;;;5.13;2.67;;;6.80;99.90;;;;;;4960855;28;20051;-87
2022/12/19 18:05:34;;;;;;;5.82;3.08;;;6.80;99.90;;;;;;4945282;28;20042;-86
2022/12/19 18:08:01;;;;;;;4.82;2.47;;;6.80;99.90;;;;;;4944859;28;20535;-87
2022/12/19 18:10:30;;;;;;;5.57;2.60;;;6.80;99.90;;;;;;4934352;28;20194;-89
2022/12/19 18:12:56;;;;;;;4.60;2.10;;;6.90;99.90;;;;;;4945740;28;20035;-87
2022/12/19 18:15:23;;;;;;;4.97;2.55;;;6.90;99.90;;;;;;4932326;28;20487;-87
2022/12/19 18:17:51;;;;;;;4.80;2.38;;;6.90;99.90;;;;;;4949838;28;20039;-85
2022/12/19 18:20:27;;;;;;;3.67;2.47;;;7.00;99.90;;;;;;4949291;28;20047;-87
2022/12/19 18:22:54;;;;;;;5.05;2.10;;;6.90;99.90;;;;;;4929933;28;20487;-87
2022/12/19 18:25:24;;;;;;;3.20;1.63;;;7.00;99.90;;;;;;4950212;28;20491;-87
2022/12/19 18:27:50;;;;;;;;;;;7.00;99.90;;;;;;4947114;28;20479;-87
2022/12/19 18:30:17;;;;;;;2.30;1.15;;;7.00;99.90;;;;;;4948735;28;19918;-87
2022/12/19 18:32:45;;;;;;;2.83;1.42;;;7.00;99.90;;;;;;4931140;28;20038;-87
2022/12/19 18:35:20;;;;;;;2.25;0.98;;;7.00;99.90;;;;;;4947715;28;20046;-86
2022/12/19 18:38:14;;;;;;;;;;;;;;;;;;;;;
2022/12/19 18:54:03;;;;;;;1.98;0.80;;;7.80;99.90;;;;;;4847958;29;20108;-87
2022/12/19 19:44:56;;;;;;;1.83;0.70;;;8.70;99.90;;;;;;6311451;22;20025;-88
2022/12/19 19:52:19;;;;;;;2.20;0.90;;;8.60;99.90;;;;;;6198491;23;20083;-85
2022/12/19 20:14:07;;;;;;;;;;;;;;;;;;;;;
2022/12/19 20:17:51;;;;;;;;;;;;;;;;;;;;;
2022/12/19 20:21:17;;;;;;;1.60;0.60;;;8.60;99.90;;;;;;6023696;23;20026;-87
2022/12/19 20:28:36;;;;;;;1.67;0.60;;;8.90;99.90;;;;;;5910721;24;20012;-87
2022/12/19 20:32:03;;;;;;;1.63;0.60;;;8.70;99.90;;;;;;5919534;24;20017;-87
2022/12/19 20:39:33;;;;;;;;;;;;;;;;;;;;;
2022/12/19 20:43:12;;;;;;;;;;;;;;;;;;;;;
2022/12/19 20:46:58;;;;;;;;;;;;;;;;;;;;;
2022/12/19 20:50:37;;;;;;;2.13;0.68;;;8.50;99.90;;;;;;6153683;22;20012;-86
2022/12/19 20:54:15;;;;;;;4.07;0.70;;;8.70;99.90;;;;;;6240219;22;20014;-86
2022/12/19 20:58:09;;;;;;;;;;;;;;;;;;;;;
2022/12/19 21:02:06;;;;;;;;;;;;;;;;;;;;;
2022/12/19 21:12:38;;;;;;;2.95;0.80;;;8.70;99.90;;;;;;6237427;23;20340;-85
2022/12/19 21:19:48;;;;;;;2.00;0.73;;;8.70;99.90;;;;;;6110349;23;20028;-87
2022/12/19 21:26:18;;;;;;;2.28;0.70;;;8.70;99.90;;;;;;5998699;23;20034;-87
2022/12/19 21:28:44;;;;;;;2.97;0.70;;;8.70;99.90;;;;;;5952358;23;20110;-87
2022/12/19 21:31:29;;;;;;;2.08;0.70;;;8.60;99.90;;;;;;5963641;23;20015;-87
2022/12/19 21:33:57;;;;;;;2.03;0.60;;;8.60;99.90;;;;;;6003120;23;20098;-87
2022/12/19 21:36:24;;;;;;;3.03;0.60;;;8.70;99.90;;;;;;6002791;23;20019;-87
2022/12/19 21:38:54;;;;;;;1.58;0.50;;;8.70;99.90;;;;;;6027114;23;20059;-88
2022/12/19 21:41:20;;;;;;;2.40;0.82;;;8.70;99.90;;;;;;6025169;23;20023;-89
2022/12/19 21:43:47;;;;;;;1.88;0.60;;;8.70;99.90;;;;;;6026562;23;20026;-88
2022/12/19 21:46:15;;;;;;;1.50;0.60;;;8.70;99.90;;;;;;6026282;23;20019;-88
2022/12/19 21:48:46;;;;;;;3.17;0.55;;;8.60;99.90;;;;;;6003465;23;20165;-88
2022/12/19 21:51:13;;;;;;;2.63;0.60;;;8.70;99.90;;;;;;5993474;23;20019;-87
2022/12/19 21:53:39;;;;;;;2.63;0.63;;;8.70;99.90;;;;;;6024616;23;20035;-88
2022/12/19 21:56:33;;;;;;;1.45;0.60;;;8.70;99.90;;;;;;6026826;23;20015;-87
2022/12/19 21:59:08;;;;;;;2.97;0.50;;;8.70;99.90;;;;;;6084238;23;20398;-88
2022/12/19 22:01:34;;;;;;;1.88;0.63;;;8.50;99.90;;;;;;6144550;22;20010;-87
2022/12/19 22:04:05;;;;;;;1.60;0.60;;;8.60;99.90;;;;;;6261987;22;20011;-87
2022/12/19 22:06:32;;;;;;;1.60;0.60;;;8.60;99.90;;;;;;6234425;22;20330;-87
2022/12/19 22:08:59;;;;;;;1.23;0.55;;;8.70;99.90;;;;;;6241413;22;20336;-88
2022/12/19 22:11:26;;;;;;;2.17;0.50;;;8.70;99.90;;;;;;6219839;22;20086;-87
2022/12/19 22:13:52;;;;;;;2.22;0.70;;;8.60;99.90;;;;;;6245698;22;20031;-87
2022/12/19 22:16:18;;;;;;;2.35;0.88;;;8.70;99.90;;;;;;6246957;22;20071;-85
2022/12/19 22:18:44;;;;;;;2.70;0.60;;;8.70;99.90;;;;;;6248152;22;20509;-89
2022/12/19 22:21:12;;;;;;;2.15;0.68;;;8.70;99.90;;;;;;6223597;22;20436;-87
2022/12/19 22:23:38;;;;;;;2.10;0.70;;;8.70;99.90;;;;;;6248647;22;20061;-86
2022/12/19 22:26:06;;;;;;;1.20;0.50;;;8.80;99.90;;;;;;6224710;22;20008;-86
2022/12/19 22:28:35;;;;;;;1.73;0.60;;;8.90;99.90;;;;;;6222640;22;20439;-90
2022/12/19 22:31:01;;;;;;;1.83;0.52;;;9.00;99.90;;;;;;6222396;22;20008;-90
2022/12/19 22:33:28;;;;;;;2.40;0.60;;;9.00;99.90;;;;;;6247617;22;20352;-89
2022/12/19 22:35:54;;;;;;;1.48;0.40;;;9.00;99.90;;;;;;6222398;22;20049;-88
2022/12/19 22:38:20;;;;;;;2.17;0.60;;;9.00;99.90;;;;;;6222141;22;20438;-87
2022/12/19 22:40:46;;;;;;;1.40;0.50;;;9.00;99.90;;;;;;6222137;22;20015;-89
2022/12/19 22:43:12;;;;;;;2.80;0.77;;;9.00;99.90;;;;;;6246756;22;20497;-87
2022/12/19 22:45:37;;;;;;;1.20;0.50;;;9.10;99.90;;;;;;6222275;22;20007;-89
2022/12/19 22:48:03;;;;;;;1.40;0.50;;;9.10;99.90;;;;;;6247804;22;20378;-87
2022/12/19 22:50:29;;;;;;;2.20;0.50;;;9.20;99.90;;;;;;6274566;22;20000;-87
2022/12/19 22:52:55;;;;;;;1.25;0.50;;;9.20;99.90;;;;;;6222363;22;20019;-85
2022/12/19 22:55:21;;;;;;;1.33;0.55;;;9.10;99.90;;;;;;6222206;22;20055;-87
2022/12/19 22:57:46;;;;;;;2.00;0.50;;;9.10;99.90;;;;;;6247184;22;20070;-84
2022/12/19 23:00:13;;;;;;;1.30;0.50;;;9.10;99.90;;;;;;6247540;22;20015;-88
2022/12/19 23:02:40;;;;;;;1.95;0.45;;;9.10;99.90;;;;;;6247958;22;20022;-87
2022/12/19 23:05:07;;;;;;;1.98;0.50;;;9.10;99.90;;;;;;6222331;22;20007;-87
2022/12/19 23:07:34;;;;;;;1.60;0.63;;;9.20;99.90;;;;;;6222480;22;20007;-87
2022/12/19 23:09:59;;;;;;;1.88;0.50;;;9.00;99.90;;;;;;6222069;22;20014;-86
2022/12/19 23:12:28;;;;;;;1.27;0.50;;;9.10;99.90;;;;;;6221812;22;20395;-87
2022/12/19 23:14:54;;;;;;;1.85;0.50;;;9.30;99.90;;;;;;6247118;22;20015;-89
2022/12/19 23:17:20;;;;;;;1.70;0.60;;;9.20;99.90;;;;;;6247396;22;19996;-89
2022/12/19 23:19:45;;;;;;;2.50;0.52;;;9.20;99.90;;;;;;6247962;22;20007;-88
2022/12/19 23:22:11;;;;;;;2.13;0.70;;;9.30;99.90;;;;;;6246669;22;20038;-89
2022/12/19 23:24:36;;;;;;;1.10;0.60;;;9.40;99.90;;;;;;6246412;22;20008;-88
2022/12/19 23:27:02;;;;;;;1.75;0.50;;;9.40;99.90;;;;;;6246912;22;20003;-87
2022/12/19 23:29:28;;;;;;;1.90;0.40;;;9.50;99.90;;;;;;6221078;22;20007;-90
2022/12/19 23:31:53;;;;;;;1.88;0.57;;;9.40;99.90;;;;;;6222519;22;20403;-86
2022/12/19 23:34:19;;;;;;;1.02;0.40;;;9.40;99.90;;;;;;6221988;22;20004;-86
2022/12/19 23:36:45;;;;;;;1.63;0.50;;;9.30;99.90;;;;;;6274402;22;20036;-87
2022/12/19 23:39:11;;;;;;;1.25;0.40;;;9.40;99.90;;;;;;6247012;22;20016;-89
2022/12/19 23:41:38;;;;;;;1.38;0.50;;;9.40;99.90;;;;;;6247384;22;20066;-87
2022/12/19 23:44:03;;;;;;;1.50;0.60;;;9.40;99.90;;;;;;6222025;22;20046;-86
2022/12/19 23:46:29;;;;;;;1.75;0.40;;;9.50;99.90;;;;;;6247472;22;20026;-89
2022/12/19 23:48:55;;;;;;;1.27;0.70;;;9.40;99.90;;;;;;6274317;22;20007;-87
2022/12/19 23:51:24;;;;;;;2.28;0.45;;;9.50;99.90;;;;;;6247190;22;20086;-86
2022/12/19 23:53:51;;;;;;;1.65;0.60;;;9.50;99.90;;;;;;6247559;22;20087;-87
2022/12/19 23:56:19;;;;;;;2.05;0.52;;;9.60;99.90;;;;;;6221331;22;20010;-89
2022/12/19 23:58:45;;;;;;;1.98;0.40;;;9.70;99.90;;;;;;6246522;22;20019;-85
